createdAt,value
2023-08-30T00:01:32.797Z,12.80
2023-08-30T00:04:00.144Z,12.80
2023-08-30T00:06:27.410Z,12.80
2023-08-30T00:08:54.682Z,12.90
2023-08-30T00:11:21.879Z,12.80
2023-08-30T00:13:49.173Z,12.80
2023-08-30T00:16:18.206Z,12.80
2023-08-30T00:18:46.301Z,12.80
2023-08-30T00:21:13.591Z,12.80
2023-08-30T00:23:40.799Z,12.80
2023-08-30T00:26:08.000Z,12.80
2023-08-30T00:28:35.241Z,12.80
2023-08-30T00:31:02.529Z,12.80
2023-08-30T00:33:29.954Z,12.80
2023-08-30T00:35:58.994Z,12.80
2023-08-30T00:38:27.926Z,12.80
2023-08-30T00:40:55.332Z,12.80
2023-08-30T00:43:22.692Z,12.80
2023-08-30T00:45:50.562Z,12.80
2023-08-30T00:48:20.666Z,12.80
2023-08-30T00:50:47.988Z,12.80
2023-08-30T00:53:15.818Z,12.80
2023-08-30T00:55:43.792Z,12.80
2023-08-30T00:58:12.536Z,12.70
2023-08-30T01:00:40.443Z,12.80
2023-08-30T01:03:11.112Z,12.90
2023-08-30T01:05:38.716Z,12.80
2023-08-30T01:08:06.903Z,12.70
2023-08-30T01:10:53.099Z,12.70
2023-08-30T01:13:21.442Z,12.70
2023-08-30T01:15:52.134Z,12.70
2023-08-30T01:18:23.056Z,12.70
2023-08-30T01:20:53.147Z,12.80
2023-08-30T01:23:29.160Z,12.80
2023-08-30T01:26:28.851Z,12.80
2023-08-30T01:28:56.766Z,12.80
2023-08-30T01:31:28.404Z,12.90
2023-08-30T01:33:56.951Z,12.90
2023-08-30T01:36:24.485Z,12.90
2023-08-30T01:38:53.764Z,12.90
2023-08-30T01:41:21.707Z,12.80
2023-08-30T01:43:49.853Z,12.90
2023-08-30T01:46:18.571Z,12.90
2023-08-30T01:48:47.324Z,12.90
2023-08-30T01:51:16.957Z,12.90
2023-08-30T01:53:46.914Z,12.90
2023-08-30T01:56:14.955Z,12.90
2023-08-30T01:58:42.242Z,12.90
2023-08-30T02:01:09.917Z,12.90
2023-08-30T02:03:37.228Z,12.90
2023-08-30T02:06:24.956Z,12.90
2023-08-30T02:09:02.795Z,12.90
2023-08-30T02:11:35.368Z,12.90
2023-08-30T02:14:09.009Z,12.90
2023-08-30T02:16:37.476Z,12.80
2023-08-30T02:19:05.118Z,12.90
2023-08-30T02:21:32.671Z,12.90
2023-08-30T02:24:00.048Z,12.90
2023-08-30T02:26:27.249Z,12.90
2023-08-30T02:28:54.511Z,12.90
2023-08-30T02:31:21.750Z,12.80
2023-08-30T02:33:49.019Z,12.90
2023-08-30T02:36:16.276Z,12.90
2023-08-30T02:38:43.536Z,13.00
2023-08-30T02:41:11.297Z,12.90
2023-08-30T02:43:38.810Z,12.90
2023-08-30T02:46:06.649Z,12.90
2023-08-30T02:48:34.644Z,12.90
2023-08-30T02:51:01.854Z,12.90
2023-08-30T02:53:29.076Z,12.90
2023-08-30T02:55:56.958Z,12.90
2023-08-30T02:58:24.486Z,12.90
2023-08-30T03:00:56.489Z,12.90
2023-08-30T03:03:23.740Z,12.90
2023-08-30T03:05:51.144Z,12.90
2023-08-30T03:08:18.617Z,12.90
2023-08-30T03:10:45.974Z,12.90
2023-08-30T03:13:14.116Z,12.90
2023-08-30T03:15:41.505Z,12.90
2023-08-30T03:18:09.060Z,12.80
2023-08-30T03:20:36.677Z,12.90
2023-08-30T03:23:04.101Z,12.90
2023-08-30T03:25:33.354Z,12.90
2023-08-30T03:28:01.075Z,12.80
2023-08-30T03:30:28.430Z,12.90
2023-08-30T03:32:56.104Z,12.90
2023-08-30T03:35:23.545Z,12.90
2023-08-30T03:37:51.746Z,12.90
2023-08-30T03:40:19.064Z,12.90
2023-08-30T03:42:46.316Z,12.90
2023-08-30T03:45:13.637Z,12.90
2023-08-30T03:47:40.880Z,13.00
2023-08-30T03:50:10.092Z,13.00
2023-08-30T03:52:37.381Z,12.90
2023-08-30T03:55:04.902Z,12.90
2023-08-30T03:57:32.134Z,12.90
2023-08-30T03:59:59.362Z,12.90
2023-08-30T04:02:26.598Z,12.90
2023-08-30T04:04:53.953Z,12.90
2023-08-30T04:07:21.200Z,12.90
2023-08-30T04:09:50.957Z,12.90
2023-08-30T04:12:18.163Z,12.90
2023-08-30T04:14:45.400Z,12.80
2023-08-30T04:17:12.601Z,13.00
2023-08-30T04:19:39.830Z,12.90
2023-08-30T04:22:09.507Z,13.00
2023-08-30T04:24:36.704Z,13.00
2023-08-30T04:27:04.259Z,13.00
2023-08-30T04:29:33.511Z,13.00
2023-08-30T04:32:01.068Z,13.00
2023-08-30T04:34:28.429Z,13.00
2023-08-30T04:36:55.835Z,13.00
2023-08-30T04:39:23.143Z,13.00
2023-08-30T04:41:53.004Z,12.90
2023-08-30T04:44:25.250Z,13.00
2023-08-30T04:46:53.587Z,13.10
2023-08-30T04:49:22.597Z,13.00
2023-08-30T04:51:49.975Z,13.00
2023-08-30T04:54:17.535Z,13.00
2023-08-30T04:56:45.458Z,13.10
2023-08-30T04:59:13.381Z,13.00
2023-08-30T05:01:45.394Z,13.10
2023-08-30T05:04:13.597Z,13.00
2023-08-30T05:06:40.794Z,13.00
2023-08-30T05:09:08.047Z,13.00
2023-08-30T05:11:35.250Z,13.00
2023-08-30T05:14:02.867Z,13.00
2023-08-30T05:16:30.275Z,13.10
2023-08-30T05:18:57.547Z,13.00
2023-08-30T05:21:24.858Z,13.10
2023-08-30T05:23:53.769Z,13.10
2023-08-30T05:26:21.227Z,13.10
2023-08-30T05:28:48.433Z,13.10
2023-08-30T05:31:15.772Z,13.20
2023-08-30T05:34:01.715Z,13.10
2023-08-30T05:36:31.938Z,13.20
2023-08-30T05:39:10.464Z,13.20
2023-08-30T05:41:44.262Z,13.30
2023-08-30T05:44:11.615Z,13.30
2023-08-30T05:46:38.855Z,13.30
2023-08-30T05:49:06.505Z,13.30
2023-08-30T05:51:34.021Z,13.30
2023-08-30T05:54:01.866Z,13.20
2023-08-30T05:56:29.045Z,13.30
2023-08-30T05:58:56.369Z,13.30
2023-08-30T06:01:24.224Z,13.30
2023-08-30T06:03:51.732Z,13.30
2023-08-30T06:06:19.047Z,13.30
2023-08-30T06:08:46.310Z,13.30
2023-08-30T06:11:14.053Z,13.40
2023-08-30T06:13:41.304Z,13.40
2023-08-30T06:16:08.814Z,13.40
2023-08-30T06:18:38.234Z,13.40
2023-08-30T06:21:05.525Z,13.50
2023-08-30T06:23:35.174Z,13.50
2023-08-30T06:26:04.005Z,13.50
2023-08-30T06:28:31.216Z,13.50
2023-08-30T06:30:58.544Z,13.60
2023-08-30T06:33:25.907Z,13.60
2023-08-30T06:35:54.391Z,13.70
2023-08-30T06:38:21.982Z,13.70
2023-08-30T06:40:50.317Z,13.70
2023-08-30T06:43:17.621Z,13.80
2023-08-30T06:45:44.886Z,13.80
2023-08-30T06:48:12.627Z,13.80
2023-08-30T06:50:40.236Z,13.90
2023-08-30T06:53:07.486Z,13.90
2023-08-30T06:55:36.984Z,14.00
2023-08-30T06:58:04.502Z,14.00
2023-08-30T07:00:31.788Z,14.10
2023-08-30T07:02:59.285Z,14.10
2023-08-30T07:05:26.635Z,14.10
2023-08-30T07:07:53.859Z,14.00
2023-08-30T07:10:21.117Z,14.10
2023-08-30T07:12:49.924Z,14.10
2023-08-30T07:15:18.208Z,14.10
2023-08-30T07:20:15.705Z,14.00
2023-08-30T07:22:42.907Z,14.10
2023-08-30T07:25:11.306Z,14.10
2023-08-30T07:27:38.693Z,14.00
2023-08-30T07:30:06.645Z,14.10
2023-08-30T07:32:34.000Z,14.20
2023-08-30T07:35:01.246Z,14.20
2023-08-30T07:37:28.566Z,14.20
2023-08-30T07:39:56.107Z,14.30
2023-08-30T07:42:23.504Z,14.40
2023-08-30T07:44:50.712Z,14.40
2023-08-30T07:47:17.918Z,14.50
2023-08-30T07:49:45.162Z,14.40
2023-08-30T07:52:13.920Z,14.40
2023-08-30T07:54:41.991Z,14.40
2023-08-30T07:57:09.580Z,14.50
2023-08-30T07:59:37.820Z,14.60
2023-08-30T08:02:08.115Z,14.60
2023-08-30T08:04:36.398Z,14.70
2023-08-30T08:07:05.891Z,14.70
2023-08-30T08:09:34.634Z,14.80
2023-08-30T08:12:01.889Z,14.90
2023-08-30T08:14:29.238Z,14.90
2023-08-30T08:16:56.549Z,15.00
2023-08-30T08:19:26.328Z,15.00
2023-08-30T08:21:55.783Z,15.10
2023-08-30T08:24:23.167Z,15.20
2023-08-30T08:26:50.469Z,15.20
2023-08-30T08:29:17.694Z,15.30
2023-08-30T08:31:45.315Z,15.30
2023-08-30T08:34:14.002Z,15.40
2023-08-30T08:36:43.294Z,15.40
2023-08-30T08:39:10.952Z,15.40
2023-08-30T08:41:44.214Z,15.40
2023-08-30T08:44:13.125Z,15.40
2023-08-30T08:46:42.031Z,15.60
2023-08-30T08:49:14.867Z,15.70
2023-08-30T08:51:44.082Z,15.80
2023-08-30T08:54:12.824Z,15.90
2023-08-30T08:56:40.826Z,16.00
2023-08-30T08:59:09.294Z,16.10
2023-08-30T09:01:40.648Z,16.10
2023-08-30T09:04:12.493Z,16.20
2023-08-30T09:06:41.197Z,16.30
2023-08-30T09:09:09.727Z,16.40
2023-08-30T09:11:50.200Z,16.50
2023-08-30T09:14:19.302Z,16.50
2023-08-30T09:16:57.415Z,16.60
2023-08-30T09:19:25.473Z,16.80
2023-08-30T09:22:00.103Z,17.00
2023-08-30T09:24:41.755Z,17.10
2023-08-30T09:27:09.001Z,17.30
2023-08-30T09:29:36.218Z,17.40
2023-08-30T09:32:04.436Z,17.40
2023-08-30T09:34:31.649Z,17.40
2023-08-30T09:37:02.662Z,17.40
2023-08-30T09:39:31.334Z,17.50
2023-08-30T09:41:59.163Z,17.80
2023-08-30T09:44:31.032Z,18.00
2023-08-30T09:46:58.624Z,18.10
2023-08-30T09:49:27.353Z,18.10
2023-08-30T09:51:55.957Z,18.10
2023-08-30T09:56:58.422Z,17.90
2023-08-30T09:59:27.072Z,18.00
2023-08-30T10:01:55.542Z,18.30
2023-08-30T10:04:25.637Z,18.50
2023-08-30T10:06:54.368Z,18.50
2023-08-30T10:09:22.594Z,18.50
2023-08-30T10:11:50.144Z,18.50
2023-08-30T10:14:18.182Z,18.50
2023-08-30T10:16:46.154Z,18.40
2023-08-30T10:19:28.197Z,18.40
2023-08-30T10:22:01.920Z,18.50
2023-08-30T10:24:37.057Z,18.50
2023-08-30T10:27:09.050Z,18.50
2023-08-30T10:29:38.838Z,18.50
2023-08-30T10:32:07.568Z,18.40
2023-08-30T10:34:36.960Z,18.40
2023-08-30T10:37:07.815Z,18.30
2023-08-30T10:39:40.349Z,18.50
2023-08-30T10:42:15.181Z,18.70
2023-08-30T10:47:27.501Z,19.20
2023-08-30T10:49:59.679Z,19.40
2023-08-30T10:52:29.488Z,19.60
2023-08-30T10:55:10.369Z,19.70
2023-08-30T10:57:39.242Z,19.90
2023-08-30T11:00:08.447Z,20.00
2023-08-30T11:02:36.407Z,19.90
2023-08-30T11:05:06.659Z,20.00
2023-08-30T11:07:34.147Z,20.10
2023-08-30T11:10:01.378Z,20.10
2023-08-30T11:12:30.907Z,20.00
2023-08-30T11:14:58.321Z,19.90
2023-08-30T11:17:27.494Z,19.80
2023-08-30T11:20:12.808Z,19.60
2023-08-30T11:22:47.667Z,19.60
2023-08-30T11:25:16.760Z,19.50
2023-08-30T11:27:44.261Z,19.50
2023-08-30T11:30:12.502Z,19.40
2023-08-30T11:32:41.449Z,19.40
2023-08-30T11:35:09.379Z,19.40
2023-08-30T11:37:36.786Z,19.30
2023-08-30T11:40:07.047Z,19.40
2023-08-30T11:42:34.951Z,19.40
2023-08-30T11:45:03.158Z,19.40
2023-08-30T11:47:30.574Z,19.50
2023-08-30T11:50:00.013Z,19.60
2023-08-30T11:52:28.709Z,19.70
2023-08-30T11:54:56.488Z,20.00
2023-08-30T11:57:23.712Z,20.10
2023-08-30T11:59:52.001Z,20.30
2023-08-30T12:02:19.838Z,20.30
2023-08-30T12:04:48.304Z,20.40
2023-08-30T12:07:27.666Z,20.60
2023-08-30T12:10:09.206Z,20.70
2023-08-30T12:12:40.132Z,20.70
2023-08-30T12:15:15.315Z,20.60
2023-08-30T12:17:42.626Z,20.50
2023-08-30T12:20:21.604Z,20.40
2023-08-30T12:22:51.088Z,20.30
2023-08-30T12:25:24.157Z,20.10
2023-08-30T12:27:51.827Z,19.90
2023-08-30T12:30:19.215Z,19.80
2023-08-30T12:32:47.558Z,19.60
2023-08-30T12:35:15.244Z,19.40
2023-08-30T12:37:42.671Z,19.20
2023-08-30T12:40:10.607Z,19.10
2023-08-30T12:42:38.420Z,19.00
2023-08-30T12:45:06.368Z,19.00
2023-08-30T12:47:33.572Z,18.90
2023-08-30T12:50:00.848Z,18.80
2023-08-30T12:52:28.280Z,18.80
2023-08-30T12:54:55.608Z,18.80
2023-08-30T12:57:22.926Z,18.80
2023-08-30T12:59:50.142Z,18.70
2023-08-30T13:02:17.797Z,18.70
2023-08-30T13:04:45.058Z,18.80
2023-08-30T13:07:12.346Z,18.90
2023-08-30T13:09:39.591Z,19.00
2023-08-30T13:12:07.332Z,19.10
2023-08-30T13:14:34.586Z,19.30
2023-08-30T13:17:01.861Z,19.50
2023-08-30T13:19:29.136Z,19.50
2023-08-30T13:21:56.568Z,19.40
2023-08-30T13:24:23.806Z,19.30
2023-08-30T13:26:51.095Z,19.30
2023-08-30T13:29:18.307Z,19.40
2023-08-30T13:31:45.594Z,19.50
2023-08-30T13:34:12.820Z,19.50
2023-08-30T13:36:40.648Z,19.50
2023-08-30T13:39:07.920Z,19.40
2023-08-30T13:41:36.829Z,19.30
2023-08-30T13:44:04.713Z,19.30
2023-08-30T13:46:32.138Z,19.10
2023-08-30T13:48:59.439Z,19.00
2023-08-30T13:51:27.491Z,18.90
2023-08-30T13:53:54.821Z,18.90
2023-08-30T13:56:23.087Z,18.80
2023-08-30T13:58:50.459Z,18.70
2023-08-30T14:01:17.748Z,18.50
2023-08-30T14:03:45.329Z,18.40
2023-08-30T14:06:12.768Z,18.20
2023-08-30T14:08:40.215Z,18.10
2023-08-30T14:11:07.719Z,17.80
2023-08-30T14:13:34.944Z,17.90
2023-08-30T14:16:04.143Z,17.80
2023-08-30T14:18:32.099Z,17.70
2023-08-30T14:21:00.962Z,17.70
2023-08-30T14:23:30.006Z,17.50
2023-08-30T14:26:10.903Z,17.20
2023-08-30T14:28:38.471Z,17.00
2023-08-30T14:31:08.837Z,16.90
2023-08-30T14:33:37.419Z,16.90
2023-08-30T14:36:10.086Z,16.90
2023-08-30T14:38:38.327Z,16.90
2023-08-30T14:41:05.862Z,16.90
2023-08-30T14:43:34.033Z,17.00
2023-08-30T14:46:10.747Z,17.10
2023-08-30T14:48:40.594Z,17.20
2023-08-30T14:51:08.631Z,17.40
2023-08-30T14:53:36.947Z,17.50
2023-08-30T14:56:08.312Z,17.80
2023-08-30T14:58:36.610Z,17.90
2023-08-30T15:01:05.231Z,18.10
2023-08-30T15:03:32.693Z,18.30
2023-08-30T15:06:00.130Z,18.30
2023-08-30T15:08:27.600Z,18.40
2023-08-30T15:10:54.927Z,18.40
2023-08-30T15:13:22.621Z,18.40
2023-08-30T15:15:49.964Z,18.40
2023-08-30T15:18:18.348Z,18.50
2023-08-30T15:20:46.485Z,18.50
2023-08-30T15:23:18.666Z,18.40
2023-08-30T15:25:50.400Z,18.30
2023-08-30T15:28:18.296Z,18.40
2023-08-30T15:30:46.394Z,18.40
2023-08-30T15:33:16.374Z,18.50
2023-08-30T15:36:02.149Z,18.60
2023-08-30T15:38:29.434Z,18.70
2023-08-30T15:40:57.002Z,18.70
2023-08-30T15:43:24.569Z,18.80
2023-08-30T15:45:51.942Z,18.90
2023-08-30T15:48:19.309Z,18.90
2023-08-30T15:50:46.886Z,18.90
2023-08-30T15:53:14.340Z,18.90
2023-08-30T15:55:41.598Z,18.90
2023-08-30T15:58:09.059Z,18.90
2023-08-30T16:00:41.602Z,18.80
2023-08-30T16:03:11.852Z,18.70
2023-08-30T16:05:39.365Z,18.70
2023-08-30T16:08:07.789Z,18.60
2023-08-30T16:10:35.122Z,18.30
2023-08-30T16:13:03.218Z,18.20
2023-08-30T16:15:30.623Z,18.10
2023-08-30T16:17:57.918Z,17.90
2023-08-30T16:20:25.432Z,17.80
2023-08-30T16:22:53.320Z,17.70
2023-08-30T16:25:20.540Z,17.50
2023-08-30T16:27:47.800Z,17.60
2023-08-30T16:30:15.149Z,17.70
2023-08-30T16:32:42.413Z,17.60
2023-08-30T16:35:09.711Z,17.50
2023-08-30T16:37:36.987Z,17.50
2023-08-30T16:40:04.720Z,17.50
2023-08-30T16:42:31.938Z,17.40
2023-08-30T16:44:59.909Z,17.50
2023-08-30T16:47:27.275Z,17.40
2023-08-30T16:49:55.896Z,17.40
2023-08-30T16:52:23.163Z,17.40
2023-08-30T16:54:50.667Z,17.30
2023-08-30T16:57:18.028Z,17.30
2023-08-30T16:59:45.290Z,17.30
2023-08-30T17:02:12.553Z,17.20
2023-08-30T17:04:39.804Z,17.30
2023-08-30T17:07:07.004Z,17.20
2023-08-30T17:09:37.413Z,17.20
2023-08-30T17:12:06.028Z,17.30
2023-08-30T17:14:33.582Z,17.40
2023-08-30T17:17:02.444Z,17.40
2023-08-30T17:19:30.001Z,17.50
2023-08-30T17:21:57.347Z,17.60
2023-08-30T17:24:24.716Z,17.90
2023-08-30T17:26:52.042Z,17.90
2023-08-30T17:29:19.430Z,17.90
2023-08-30T17:31:47.223Z,17.90
2023-08-30T17:34:14.513Z,17.90
2023-08-30T17:36:45.701Z,17.80
2023-08-30T17:39:13.237Z,17.60
2023-08-30T17:41:40.491Z,17.50
2023-08-30T17:44:08.118Z,17.40
2023-08-30T17:46:36.749Z,17.20
2023-08-30T17:49:04.090Z,17.10
2023-08-30T17:51:31.488Z,17.00
2023-08-30T17:53:59.032Z,16.90
2023-08-30T17:56:27.964Z,16.80
2023-08-30T17:58:56.038Z,16.70
2023-08-30T18:01:23.458Z,16.50
2023-08-30T18:03:50.752Z,16.30
2023-08-30T18:06:18.705Z,16.20
2023-08-30T18:08:46.380Z,16.10
2023-08-30T18:11:20.818Z,16.00
2023-08-30T18:13:49.596Z,15.90
2023-08-30T18:16:19.099Z,15.80
2023-08-30T18:18:46.297Z,15.70
2023-08-30T18:21:14.283Z,15.60
2023-08-30T18:23:43.911Z,15.60
2023-08-30T18:26:11.584Z,15.40
2023-08-30T18:28:38.876Z,15.30
2023-08-30T18:31:06.060Z,15.30
2023-08-30T18:33:33.238Z,15.20
2023-08-30T18:36:00.689Z,15.20
2023-08-30T18:38:27.880Z,15.10
2023-08-30T18:41:05.220Z,15.10
2023-08-30T18:43:39.726Z,15.00
2023-08-30T18:46:06.981Z,15.00
2023-08-30T18:48:34.286Z,15.00
2023-08-30T18:51:02.238Z,14.80
2023-08-30T18:53:29.498Z,14.80
2023-08-30T18:55:56.699Z,14.80
2023-08-30T18:58:24.096Z,14.80
2023-08-30T19:00:51.487Z,14.80
2023-08-30T19:03:18.929Z,14.70
2023-08-30T19:05:46.452Z,14.80
2023-08-30T19:08:13.784Z,14.70
2023-08-30T19:10:40.997Z,14.70
2023-08-30T19:13:08.203Z,14.60
2023-08-30T19:15:35.438Z,14.50
2023-08-30T19:18:02.682Z,14.40
2023-08-30T19:20:30.146Z,14.40
2023-08-30T19:22:57.349Z,14.30
2023-08-30T19:25:24.619Z,14.40
2023-08-30T19:27:51.819Z,14.40
2023-08-30T19:30:19.393Z,14.40
2023-08-30T19:32:46.603Z,14.30
2023-08-30T19:35:14.007Z,14.30
2023-08-30T19:37:41.294Z,14.40
2023-08-30T19:40:10.045Z,14.40
2023-08-30T19:42:40.580Z,14.30
2023-08-30T19:45:08.785Z,14.30
2023-08-30T19:47:36.216Z,14.40
2023-08-30T19:50:03.562Z,14.40
2023-08-30T19:52:30.773Z,14.40
2023-08-30T19:54:58.194Z,14.30
2023-08-30T19:57:26.523Z,14.30
2023-08-30T19:59:55.672Z,14.30
2023-08-30T20:02:23.376Z,14.30
2023-08-30T20:04:51.167Z,14.20
2023-08-30T20:07:18.572Z,14.20
2023-08-30T20:09:45.760Z,14.10
2023-08-30T20:12:13.088Z,14.10
2023-08-30T20:14:40.498Z,14.10
2023-08-30T20:17:07.746Z,14.10
2023-08-30T20:19:35.546Z,14.00
2023-08-30T20:22:03.399Z,14.00
2023-08-30T20:24:31.820Z,14.00
2023-08-30T20:26:59.100Z,13.90
2023-08-30T20:29:26.357Z,13.90
2023-08-30T20:31:54.168Z,13.80
2023-08-30T20:34:21.708Z,13.80
2023-08-30T20:36:48.969Z,13.80
2023-08-30T20:39:16.268Z,13.80
2023-08-30T20:41:43.530Z,13.70
2023-08-30T20:44:10.961Z,13.70
2023-08-30T20:46:38.454Z,13.70
2023-08-30T20:49:06.812Z,13.70
2023-08-30T20:51:34.093Z,13.70
2023-08-30T20:54:04.200Z,13.70
2023-08-30T20:56:31.448Z,13.70
2023-08-30T20:59:01.478Z,13.70
2023-08-30T21:01:31.502Z,13.70
2023-08-30T21:03:59.053Z,13.70
2023-08-30T21:06:28.185Z,13.70
2023-08-30T21:08:56.269Z,13.70
2023-08-30T21:11:23.489Z,13.70
2023-08-30T21:13:50.777Z,13.70
2023-08-30T21:16:18.098Z,13.70
2023-08-30T21:18:45.383Z,13.70
2023-08-30T21:21:12.590Z,13.70
2023-08-30T21:23:39.892Z,13.70
2023-08-30T21:26:07.126Z,13.80
2023-08-30T21:28:34.458Z,13.70
2023-08-30T21:31:01.750Z,13.70
2023-08-30T21:33:29.063Z,13.70
2023-08-30T21:35:56.361Z,13.70
2023-08-30T21:38:23.554Z,13.70
2023-08-30T21:40:50.754Z,13.70
2023-08-30T21:43:18.736Z,13.80
2023-08-30T21:45:46.011Z,13.80
2023-08-30T21:48:13.387Z,13.80
2023-08-30T21:50:40.925Z,13.80
2023-08-30T21:53:08.343Z,13.80
2023-08-30T21:55:35.638Z,13.90
2023-08-30T21:58:04.393Z,13.90
2023-08-30T22:00:31.663Z,13.90
2023-08-30T22:02:58.978Z,13.90
2023-08-30T22:05:26.277Z,14.00
2023-08-30T22:07:53.574Z,14.00
2023-08-30T22:10:20.917Z,14.00
2023-08-30T22:12:49.555Z,14.00
2023-08-30T22:15:17.345Z,13.90
2023-08-30T22:17:46.739Z,13.90
2023-08-30T22:20:21.639Z,13.90
2023-08-30T22:22:49.714Z,14.00
2023-08-30T22:25:17.187Z,14.00
2023-08-30T22:27:45.438Z,13.90
2023-08-30T22:30:15.761Z,13.90
2023-08-30T22:32:44.327Z,13.90
2023-08-30T22:35:12.541Z,13.90
2023-08-30T22:37:40.292Z,13.90
2023-08-30T22:40:09.448Z,13.90
2023-08-30T22:42:38.763Z,14.00
2023-08-30T22:45:06.559Z,14.10
2023-08-30T22:47:33.865Z,13.90
2023-08-30T22:50:01.891Z,13.90
2023-08-30T22:52:30.214Z,13.90
2023-08-30T22:54:59.491Z,13.70
2023-08-30T22:57:26.678Z,13.80
2023-08-30T22:59:53.974Z,13.80
2023-08-30T23:02:21.233Z,13.70
2023-08-30T23:04:50.189Z,13.70
2023-08-30T23:07:17.432Z,13.60
2023-08-30T23:09:44.717Z,13.60
2023-08-30T23:12:11.922Z,13.50
2023-08-30T23:14:39.333Z,13.50
2023-08-30T23:17:06.585Z,13.50
2023-08-30T23:19:34.000Z,13.30
2023-08-30T23:22:01.232Z,13.40
2023-08-30T23:24:28.488Z,13.40
2023-08-30T23:26:55.677Z,13.40
2023-08-30T23:29:27.216Z,13.30
2023-08-30T23:31:54.778Z,13.30
2023-08-30T23:34:22.142Z,13.30
2023-08-30T23:36:49.378Z,13.40
2023-08-30T23:39:16.673Z,13.30
2023-08-30T23:41:43.905Z,13.40
2023-08-30T23:44:11.908Z,13.30
2023-08-30T23:46:39.170Z,13.30
2023-08-30T23:49:06.433Z,13.30
2023-08-30T23:51:34.532Z,13.30
2023-08-30T23:54:03.699Z,13.30
2023-08-30T23:56:31.005Z,13.30
2023-08-30T23:58:58.229Z,13.30
